Time;durP1;ratioP1;P1;durP2;ratioP2;P2;SDS_P1;SDS_P2;PMS_P1;PMS_P2;Temp;Humidity;BMP_temperature;BMP_pressure;BME280_temperature;BME280_humidity;BME280_pressure;Samples;Min_cycle;Max_cycle;Signal;HPM_P1;HPM_P2
2023/09/18 00:01:35;;;;;;;5.80;4.70;;;;;;;25.65;nan;97852.41;5027049;28;20583;-65
2023/09/18 00:04:06;;;;;;;4.97;4.47;;;;;;;25.62;nan;97853.03;5024548;28;20084;-64
2023/09/18 00:06:35;;;;;;;5.40;4.57;;;;;;;25.68;nan;97859.91;5027348;28;20056;-64
2023/09/18 00:09:06;;;;;;;4.95;4.40;;;;;;;25.39;nan;97863.06;5027164;28;20374;-64
2023/09/18 00:11:37;;;;;;;5.35;4.85;;;;;;;25.44;nan;97879.22;5027347;28;20065;-64
2023/09/18 00:14:09;;;;;;;5.25;4.75;;;;;;;25.46;nan;97876.16;5027274;28;20049;-63
2023/09/18 00:16:39;;;;;;;4.85;4.45;;;;;;;25.54;nan;97874.63;5027857;28;20084;-64
2023/09/18 00:19:25;;;;;;;6.15;4.97;;;;;;;25.25;nan;97877.78;5024423;28;20060;-64
2023/09/18 00:21:54;;;;;;;7.93;5.80;;;;;;;25.16;nan;97882.31;5026984;28;20501;-63
2023/09/18 00:24:25;;;;;;;5.95;4.93;;;;;;;25.18;nan;97875.47;5026682;28;20056;-64
2023/09/18 00:26:54;;;;;;;5.40;4.78;;;;;;;25.16;nan;97872.28;5027380;28;20042;-65
2023/09/18 00:29:24;;;;;;;5.57;4.78;;;;;;;25.22;nan;97862.13;5026827;28;20456;-64
2023/09/18 00:31:53;;;;;;;6.88;4.72;;;;;;;25.23;nan;97871.84;5028225;28;20116;-65
2023/09/18 00:34:22;;;;;;;5.18;4.45;;;;;;;25.19;nan;97871.66;5026493;28;20154;-64
2023/09/18 00:36:52;;;;;;;5.72;4.20;;;;;;;25.24;nan;97879.69;5026767;28;20049;-65
2023/09/18 00:39:21;;;;;;;5.88;4.10;;;;;;;25.31;nan;97895.53;5024648;28;20042;-64
2023/09/18 00:41:53;;;;;;;4.20;3.78;;;;;;;25.20;nan;97892.25;5026230;28;20095;-64
2023/09/18 00:44:26;;;;;;;3.80;3.40;;;;;;;25.16;nan;97910.22;5026764;28;20049;-64
2023/09/18 00:46:56;;;;;;;4.68;3.63;;;;;;;25.15;nan;97910.53;5027359;28;20041;-64
2023/09/18 00:49:26;;;;;;;5.07;3.58;;;;;;;25.21;nan;97914.72;5025632;28;20125;-64
2023/09/18 00:51:56;;;;;;;5.07;3.38;;;;;;;25.17;nan;97913.75;5026678;28;20080;-64
2023/09/18 00:54:25;;;;;;;3.72;3.25;;;;;;;25.16;nan;97909.44;5025679;28;20136;-64
2023/09/18 00:56:55;;;;;;;4.40;3.40;;;;;;;25.20;nan;97915.84;5026338;28;20057;-64
2023/09/18 00:59:25;;;;;;;3.65;3.15;;;;;;;25.05;nan;97925.09;5026521;28;20046;-64
2023/09/18 01:01:54;;;;;;;3.65;3.35;;;;;;;25.09;nan;97925.31;5024319;28;20530;-64
2023/09/18 01:04:25;;;;;;;4.20;3.40;;;;;;;25.24;nan;97928.47;5026068;28;20056;-64
2023/09/18 01:06:56;;;;;;;3.35;3.03;;;;;;;25.05;nan;97928.63;5008970;28;20045;-64
2023/09/18 01:09:26;;;;;;;3.80;3.40;;;;;;;25.39;nan;97938.16;5009017;28;20052;-65
2023/09/18 01:12:19;;;;;;;3.88;3.10;;;;;;;25.22;nan;97941.53;5026583;28;20084;-65
2023/09/18 01:14:57;;;;;;;4.70;3.40;;;;;;;25.26;nan;97947.94;5025950;28;20060;-65
2023/09/18 01:17:27;;;;;;;3.58;3.25;;;;;;;25.20;nan;97953.78;5011897;28;20041;-65
2023/09/18 01:19:57;;;;;;;4.03;3.63;;;;;;;25.20;nan;97951.88;5025227;28;20064;-65
2023/09/18 01:22:30;;;;;;;3.67;3.20;;;;;;;25.13;nan;97964.25;5024890;28;20465;-65
2023/09/18 01:25:00;;;;;;;;;;;;;;;25.13;nan;97966.97;5034209;28;20049;-65
2023/09/18 01:27:29;;;;;;;4.20;3.83;;;;;;;25.08;nan;97959.75;5018608;28;20031;-65
2023/09/18 01:29:58;;;;;;;4.53;3.75;;;;;;;25.26;nan;97964.22;5023845;28;20084;-66
2023/09/18 01:32:31;;;;;;;3.70;3.35;;;;;;;25.15;nan;97968.25;5024466;28;20049;-65
2023/09/18 01:35:06;;;;;;;4.10;3.70;;;;;;;25.16;nan;97969.84;5027528;28;20791;-65
2023/09/18 01:37:37;;;;;;;4.15;3.70;;;;;;;25.13;nan;97973.19;5021259;28;20060;-65
2023/09/18 01:40:07;;;;;;;4.78;3.40;;;;;;;25.11;nan;97977.28;5039724;28;20061;-65
2023/09/18 01:42:38;;;;;;;3.97;3.35;;;;;;;25.05;nan;97974.69;5006750;28;20045;-64
2023/09/18 01:45:08;;;;;;;3.78;3.47;;;;;;;24.94;nan;97980.63;5003881;28;20045;-65
2023/09/18 01:47:38;;;;;;;3.88;3.42;;;;;;;25.10;nan;97991.94;5023049;28;20041;-65
2023/09/18 01:50:08;;;;;;;3.63;3.20;;;;;;;25.16;nan;97988.81;5022301;28;20049;-66
2023/09/18 01:52:37;;;;;;;3.63;3.17;;;;;;;25.20;nan;97997.16;5023011;28;20567;-65
2023/09/18 01:55:07;;;;;;;4.22;3.10;;;;;;;25.12;nan;97990.53;5023360;28;20053;-65
2023/09/18 01:57:37;;;;;;;3.35;2.45;;;;;;;25.26;nan;97996.75;5024810;28;20537;-66
2023/09/18 02:00:10;;;;;;;4.45;2.80;;;;;;;25.15;nan;97994.53;5024253;28;20106;-65
2023/09/18 02:02:40;;;;;;;3.05;2.45;;;;;;;25.15;nan;97999.97;5022595;28;20057;-66
2023/09/18 02:05:26;;;;;;;2.17;1.98;;;;;;;25.25;nan;98011.41;5021819;28;20049;-65
2023/09/18 02:07:56;;;;;;;2.50;2.00;;;;;;;25.21;nan;98015.81;5022441;28;20368;-65
2023/09/18 02:10:26;;;;;;;3.55;2.40;;;;;;;25.16;nan;98013.22;5039590;28;20107;-65
2023/09/18 02:12:55;;;;;;;2.63;2.42;;;;;;;25.14;nan;98012.72;5023912;28;20381;-65
2023/09/18 02:15:24;;;;;;;3.22;2.33;;;;;;;24.99;nan;98024.69;5021935;28;20073;-65
2023/09/18 02:17:54;;;;;;;2.92;2.47;;;;;;;24.97;nan;98021.47;5023355;28;20056;-66
2023/09/18 02:20:23;;;;;;;4.90;2.53;;;;;;;24.98;nan;98027.69;5006527;28;20060;-66
2023/09/18 02:22:52;;;;;;;4.03;2.60;;;;;;;24.92;nan;98034.31;5018225;28;20045;-65
2023/09/18 02:25:22;;;;;;;3.28;2.67;;;;;;;24.88;nan;98027.88;5023096;28;20061;-65
2023/09/18 02:27:51;;;;;;;3.10;2.55;;;;;;;24.90;nan;98031.91;5023426;28;20049;-66
2023/09/18 02:30:20;;;;;;;4.63;2.65;;;;;;;24.91;nan;98027.31;5022664;28;20045;-65
2023/09/18 02:32:50;;;;;;;4.85;2.80;;;;;;;24.93;nan;98025.88;5018416;28;20735;-66
2023/09/18 02:35:19;;;;;;;2.97;2.47;;;;;;;25.02;nan;98043.03;5039519;28;20135;-65
2023/09/18 02:37:49;;;;;;;6.15;2.40;;;;;;;25.02;nan;98047.66;5013052;28;20067;-65
2023/09/18 02:40:18;;;;;;;2.95;2.47;;;;;;;25.05;nan;98045.13;5023287;28;20505;-65
2023/09/18 02:42:48;;;;;;;3.38;2.47;;;;;;;25.07;nan;98054.88;5019681;28;20049;-65
2023/09/18 02:45:17;;;;;;;3.00;2.20;;;;;;;25.08;nan;98060.00;5020026;28;20135;-64
2023/09/18 02:47:46;;;;;;;2.60;2.30;;;;;;;25.00;nan;98058.78;5023976;28;20099;-65
2023/09/18 02:50:15;;;;;;;2.83;2.25;;;;;;;25.03;nan;98054.69;5006803;28;20061;-65
2023/09/18 02:52:45;;;;;;;9.25;3.85;;;;;;;25.09;nan;98050.78;5006189;28;20045;-65
2023/09/18 02:55:15;;;;;;;3.10;2.10;;;;;;;25.12;nan;98057.50;5006358;28;20053;-65
2023/09/18 02:57:44;;;;;;;2.33;1.52;;;;;;;25.13;nan;98057.19;5022022;28;20061;-66
2023/09/18 03:00:14;;;;;;;6.18;2.58;;;;;;;25.18;nan;98064.44;5018705;28;20322;-64
2023/09/18 03:02:44;;;;;;;2.38;1.70;;;;;;;25.30;nan;98053.84;5000647;28;20438;-66
2023/09/18 03:05:14;;;;;;;2.85;1.63;;;;;;;25.33;nan;98067.59;5028859;28;20046;-65
2023/09/18 03:07:44;;;;;;;4.70;1.65;;;;;;;25.30;nan;98072.84;5016171;28;20147;-65
2023/09/18 03:10:15;;;;;;;3.60;1.42;;;;;;;25.26;nan;98071.84;5004407;28;20391;-65
2023/09/18 03:12:48;;;;;;;1.95;1.50;;;;;;;25.26;nan;98088.09;5003460;28;20041;-65
2023/09/18 03:15:18;;;;;;;2.03;1.50;;;;;;;25.23;nan;98089.50;5018804;28;20195;-63
2023/09/18 03:17:50;;;;;;;2.60;1.65;;;;;;;25.27;nan;98087.78;5003958;28;20042;-65
2023/09/18 03:20:26;;;;;;;2.75;1.33;;;;;;;25.24;nan;98087.59;5020065;28;20057;-65
2023/09/18 03:22:58;;;;;;;1.23;1.13;;;;;;;25.50;nan;98104.94;5003078;28;20165;-65
2023/09/18 03:25:28;;;;;;;2.78;1.13;;;;;;;25.58;nan;98093.38;5018948;28;20489;-66
2023/09/18 03:27:58;;;;;;;2.25;1.13;;;;;;;25.80;nan;98106.22;5003256;28;20136;-65
2023/09/18 03:30:30;;;;;;;;;;;;;;;25.79;nan;98101.91;4998395;28;20051;-66
2023/09/18 03:33:00;;;;;;;2.08;1.23;;;;;;;26.03;nan;98099.69;5003305;28;20012;-66
2023/09/18 03:35:45;;;;;;;1.58;1.48;;;;;;;26.04;nan;98092.34;5020451;28;20054;-66
2023/09/18 03:38:15;;;;;;;2.78;1.33;;;;;;;26.31;nan;98097.69;5038165;28;20042;-67
2023/09/18 03:40:44;;;;;;;4.40;1.58;;;;;;;26.02;nan;98097.31;5007557;28;20143;-66
2023/09/18 03:43:14;;;;;;;2.40;1.90;;;;;;;25.85;nan;98104.19;5022746;28;20049;-67
2023/09/18 03:45:43;;;;;;;1.60;1.50;;;;;;;26.02;nan;98113.59;5022823;28;20054;-67
2023/09/18 03:48:13;;;;;;;2.45;1.60;;;;;;;26.13;nan;98118.47;5004256;28;20046;-66
2023/09/18 03:50:43;;;;;;;5.43;1.85;;;;;;;26.24;nan;98114.44;5023183;28;20061;-66
2023/09/18 03:53:13;;;;;;;2.38;1.90;;;;;;;26.42;nan;98115.38;5005989;28;20042;-67
2023/09/18 03:55:44;;;;;;;2.17;1.77;;;;;;;26.15;nan;98120.88;5006764;28;20058;-66
2023/09/18 03:58:13;;;;;;;1.80;1.70;;;;;;;26.48;nan;98124.16;5033518;28;20041;-66
2023/09/18 04:00:43;;;;;;;1.77;1.60;;;;;;;26.62;nan;98133.06;5042992;28;20049;-66
2023/09/18 04:03:12;;;;;;;2.47;1.70;;;;;;;26.86;nan;98130.84;5025064;28;20140;-67
2023/09/18 04:05:42;;;;;;;2.45;1.80;;;;;;;26.88;nan;98142.19;5026476;28;20065;-67
2023/09/18 04:08:13;;;;;;;2.17;1.73;;;;;;;26.94;nan;98137.41;5025680;28;20056;-65
2023/09/18 04:10:44;;;;;;;4.57;2.03;;;;;;;27.14;nan;98147.72;5025184;28;20061;-67
2023/09/18 04:13:14;;;;;;;2.50;1.77;;;;;;;27.54;nan;98149.34;5025425;28;20065;-68
2023/09/18 04:15:45;;;;;;;3.10;1.50;;;;;;;27.63;nan;98144.72;5003069;28;20052;-68
2023/09/18 04:18:15;;;;;;;2.00;1.70;;;;;;;27.70;nan;98152.44;5024291;28;20045;-67
2023/09/18 04:20:45;;;;;;;1.75;1.65;;;;;;;27.73;nan;98153.72;5038396;28;20110;-68
2023/09/18 04:23:18;;;;;;;2.58;2.38;;;;;;;27.75;nan;98151.47;5040006;28;20482;-69
2023/09/18 04:25:48;;;;;;;5.60;2.72;;;;;;;27.72;nan;98157.53;5042604;28;20140;-68
2023/09/18 04:28:21;;;;;;;7.78;2.40;;;;;;;27.58;nan;98158.47;5027454;28;20131;-67
2023/09/18 04:30:51;;;;;;;8.25;2.65;;;;;;;27.54;nan;98156.69;5009688;28;20077;-69
2023/09/18 04:33:21;;;;;;;7.57;3.20;;;;;;;27.44;nan;98159.69;5017677;28;20057;-66
2023/09/18 04:35:51;;;;;;;3.92;2.50;;;;;;;27.39;nan;98154.41;5025101;28;20049;-66
2023/09/18 04:38:21;;;;;;;4.50;2.45;;;;;;;27.33;nan;98153.72;5009185;28;20456;-66
2023/09/18 04:40:59;;;;;;;4.70;2.50;;;;;;;27.32;nan;98157.56;5024516;28;20045;-65
2023/09/18 04:43:30;;;;;;;5.90;2.30;;;;;;;27.31;nan;98164.09;5039176;28;20207;-66
2023/09/18 04:46:04;;;;;;;2.50;2.30;;;;;;;27.29;nan;98155.47;5015508;28;20377;-65
2023/09/18 04:48:35;;;;;;;2.60;2.28;;;;;;;27.26;nan;98158.84;5029020;28;20055;-66
2023/09/18 04:51:06;;;;;;;2.25;1.80;;;;;;;27.24;nan;98152.91;5042609;28;20049;-65
2023/09/18 04:53:36;;;;;;;2.30;2.10;;;;;;;27.24;nan;98155.63;5014567;28;20717;-66
2023/09/18 04:56:22;;;;;;;2.85;2.00;;;;;;;27.12;nan;98155.41;5027885;28;20099;-66
2023/09/18 04:58:51;;;;;;;4.60;2.13;;;;;;;27.13;nan;98157.03;5024414;28;20058;-65
2023/09/18 05:01:20;;;;;;;3.85;2.03;;;;;;;27.13;nan;98162.47;5032845;28;20057;-66
2023/09/18 05:03:51;;;;;;;2.47;2.28;;;;;;;27.14;nan;98162.13;5025056;28;20061;-66
2023/09/18 05:06:21;;;;;;;2.63;2.00;;;;;;;27.15;nan;98161.03;4998771;28;20053;-66
2023/09/18 05:08:51;;;;;;;2.10;1.90;;;;;;;27.09;nan;98156.03;5022640;28;20084;-65
2023/09/18 05:11:21;;;;;;;1.52;1.42;;;;;;;27.12;nan;98166.28;5022858;28;20444;-65
2023/09/18 05:13:51;;;;;;;1.77;1.50;;;;;;;26.98;nan;98162.84;5024985;28;20049;-65
2023/09/18 05:16:20;;;;;;;2.10;1.77;;;;;;;26.97;nan;98156.63;5032060;28;20060;-65
2023/09/18 05:18:49;;;;;;;3.55;1.83;;;;;;;27.00;nan;98163.31;5022520;28;20050;-65
2023/09/18 05:21:24;;;;;;;1.48;1.30;;;;;;;26.86;nan;98163.44;5023842;28;20100;-66
2023/09/18 05:23:53;;;;;;;1.60;1.40;;;;;;;26.80;nan;98160.00;5024899;28;20142;-66
2023/09/18 05:26:24;;;;;;;1.48;1.30;;;;;;;26.75;nan;98156.63;5023507;28;20073;-66
2023/09/18 05:28:54;;;;;;;1.08;0.82;;;;;;;26.66;nan;98162.00;5024637;28;20057;-65
2023/09/18 05:31:24;;;;;;;0.80;0.80;;;;;;;26.62;nan;98162.94;5025349;28;20049;-65
2023/09/18 05:33:53;;;;;;;1.55;1.45;;;;;;;26.67;nan;98165.53;5009189;28;20049;-66
2023/09/18 05:36:22;;;;;;;3.53;0.82;;;;;;;26.66;nan;98163.91;5025351;28;20068;-66
2023/09/18 05:38:52;;;;;;;1.00;0.90;;;;;;;26.65;nan;98162.31;5025389;28;20837;-66
2023/09/18 05:41:25;;;;;;;0.90;0.82;;;;;;;26.70;nan;98167.63;5025444;28;22151;-68
2023/09/18 05:43:58;;;;;;;1.65;0.90;;;;;;;26.70;nan;98164.91;5025509;28;20045;-65
2023/09/18 05:46:27;;;;;;;3.00;0.93;;;;;;;26.72;nan;98168.13;5025684;28;20138;-66
2023/09/18 05:48:58;;;;;;;1.20;1.10;;;;;;;26.68;nan;98157.06;5023143;28;20059;-66
2023/09/18 05:51:27;;;;;;;1.52;1.00;;;;;;;26.71;nan;98164.59;5018435;28;20052;-67
2023/09/18 05:53:56;;;;;;;3.65;1.00;;;;;;;26.77;nan;98170.72;5020058;28;20849;-66
2023/09/18 05:56:42;;;;;;;4.20;1.10;;;;;;;26.82;nan;98163.22;5020668;28;20064;-66
2023/09/18 05:59:12;;;;;;;4.35;1.13;;;;;;;26.92;nan;98162.19;5024427;28;20119;-66
2023/09/18 06:01:41;;;;;;;2.03;1.20;;;;;;;27.04;nan;98151.53;5024913;28;20496;-67
2023/09/18 06:04:12;;;;;;;1.33;1.00;;;;;;;27.16;nan;98154.47;5018862;28;20050;-67
2023/09/18 06:06:42;;;;;;;1.42;0.98;;;;;;;27.33;nan;98156.44;5024439;28;20064;-67
2023/09/18 06:09:12;;;;;;;6.03;1.02;;;;;;;27.52;nan;98148.88;5023996;28;20059;-67
2023/09/18 06:11:42;;;;;;;0.82;0.75;;;;;;;27.73;nan;98151.78;5017708;28;20073;-68
2023/09/18 06:14:11;;;;;;;0.80;0.75;;;;;;;28.06;nan;98160.31;5014523;28;20116;-66
2023/09/18 06:16:41;;;;;;;2.83;0.70;;;;;;;28.18;nan;98157.78;5012929;28;20381;-68
2023/09/18 06:19:10;;;;;;;3.70;0.70;;;;;;;28.30;nan;98149.78;5021251;28;20045;-66
2023/09/18 06:21:40;;;;;;;2.13;0.90;;;;;;;28.32;nan;98153.00;5021730;28;20049;-66
2023/09/18 06:24:09;;;;;;;1.65;0.80;;;;;;;28.32;nan;98153.00;5030035;28;20053;-68
2023/09/18 06:26:38;;;;;;;3.10;0.70;;;;;;;28.39;nan;98156.03;5020177;28;20053;-69
2023/09/18 06:29:09;;;;;;;0.60;0.60;;;;;;;28.50;nan;98140.94;5020598;28;20050;-68
2023/09/18 06:31:38;;;;;;;1.27;0.70;;;;;;;28.63;nan;98138.38;5024055;28;20051;-65
2023/09/18 06:34:08;;;;;;;0.93;0.63;;;;;;;28.70;nan;98144.94;5022854;28;20377;-71
2023/09/18 06:36:37;;;;;;;0.85;0.52;;;;;;;28.75;nan;98136.59;5022538;28;20041;-71
2023/09/18 06:39:07;;;;;;;0.90;0.57;;;;;;;28.77;nan;98125.34;5019413;28;20049;-72
2023/09/18 06:41:36;;;;;;;0.77;0.70;;;;;;;28.94;nan;98126.09;5018226;28;20038;-70
2023/09/18 06:44:06;;;;;;;1.52;0.60;;;;;;;28.83;nan;98126.78;5002931;28;20130;-68
2023/09/18 06:46:35;;;;;;;0.63;0.60;;;;;;;29.04;nan;98122.22;5016159;28;20053;-70
2023/09/18 06:49:04;;;;;;;2.47;0.70;;;;;;;29.30;nan;98122.13;5020957;28;20068;-70
2023/09/18 06:51:34;;;;;;;1.13;0.90;;;;;;;29.41;nan;98109.72;5021430;28;20132;-68
2023/09/18 06:54:11;;;;;;;0.80;0.80;;;;;;;29.41;nan;98109.72;5014407;28;20053;-69
2023/09/18 06:56:41;;;;;;;2.55;0.88;;;;;;;29.29;nan;98121.34;5018787;28;20068;-69
2023/09/18 06:59:13;;;;;;;1.13;1.00;;;;;;;29.28;nan;98094.34;5019962;28;20052;-67
2023/09/18 07:01:43;;;;;;;1.38;0.80;;;;;;;28.98;nan;98102.53;5020442;28;20654;-71
2023/09/18 07:04:12;;;;;;;2.33;0.80;;;;;;;29.15;nan;98096.19;5023090;28;20053;-70
2023/09/18 07:06:42;;;;;;;0.73;0.70;;;;;;;29.21;nan;98102.28;5021693;28;20077;-68
2023/09/18 07:09:12;;;;;;;1.70;0.80;;;;;;;29.10;nan;98095.56;5012102;28;20121;-67
2023/09/18 07:11:42;;;;;;;2.58;1.02;;;;;;;29.20;nan;98090.56;5019897;28;20099;-67
2023/09/18 07:14:11;;;;;;;3.40;0.88;;;;;;;29.38;nan;98089.38;5021774;28;20057;-67
2023/09/18 07:16:40;;;;;;;3.42;0.70;;;;;;;29.47;nan;98093.97;5009826;28;20064;-67
2023/09/18 07:19:11;;;;;;;1.67;1.10;;;;;;;29.09;nan;98097.50;5022911;28;20152;-65
2023/09/18 07:21:41;;;;;;;1.25;0.85;;;;;;;29.28;nan;98081.53;5024475;28;20057;-70
2023/09/18 07:24:16;;;;;;;3.78;0.77;;;;;;;29.45;nan;98084.19;5019753;28;20045;-66
2023/09/18 07:26:46;;;;;;;0.63;0.60;;;;;;;29.32;nan;98077.03;5026824;28;20057;-67
2023/09/18 07:29:16;;;;;;;2.90;0.73;;;;;;;29.20;nan;98076.13;5024780;28;20060;-67
2023/09/18 07:31:46;;;;;;;0.60;0.50;;;;;;;29.28;nan;98073.34;5018947;28;20115;-66
2023/09/18 07:34:17;;;;;;;0.63;0.63;;;;;;;29.38;nan;98062.09;5015827;28;20079;-67
2023/09/18 07:36:46;;;;;;;1.38;0.60;;;;;;;29.43;nan;98048.22;5025480;28;20183;-64
2023/09/18 07:39:15;;;;;;;2.05;0.85;;;;;;;29.40;nan;98053.53;5018285;28;20042;-63
2023/09/18 07:41:45;;;;;;;2.10;0.75;;;;;;;29.50;nan;98052.38;5024328;28;20088;-65
2023/09/18 07:44:22;;;;;;;1.27;1.00;;;;;;;29.50;nan;98055.09;5026263;28;20119;-64
2023/09/18 07:46:54;;;;;;;1.30;0.82;;;;;;;29.35;nan;98057.25;5025213;28;20095;-64
2023/09/18 07:49:23;;;;;;;1.85;0.60;;;;;;;29.29;nan;98050.41;5023204;28;20049;-65
2023/09/18 07:51:52;;;;;;;0.60;0.50;;;;;;;29.30;nan;98048.47;5027148;28;20060;-65
2023/09/18 07:54:21;;;;;;;0.80;0.60;;;;;;;29.39;nan;98049.22;5025725;28;20060;-64
2023/09/18 07:56:51;;;;;;;1.95;0.73;;;;;;;29.40;nan;98035.25;5024137;28;20049;-66
2023/09/18 07:59:20;;;;;;;1.05;0.75;;;;;;;29.42;nan;98035.72;5018717;28;20045;-65
2023/09/18 08:01:50;;;;;;;1.10;0.90;;;;;;;29.35;nan;98032.72;5024481;28;20046;-64
2023/09/18 08:04:20;;;;;;;1.02;0.70;;;;;;;29.29;nan;98031.31;5023350;28;20138;-65
2023/09/18 08:06:49;;;;;;;2.38;0.77;;;;;;;29.34;nan;98031.09;5023524;28;20144;-65
2023/09/18 08:09:18;;;;;;;5.05;1.20;;;;;;;29.30;nan;98032.91;5023138;28;20075;-64
2023/09/18 08:11:49;;;;;;;1.05;0.73;;;;;;;29.32;nan;98027.94;5021493;28;20412;-64
2023/09/18 08:14:18;;;;;;;1.27;0.70;;;;;;;29.38;nan;98021.16;5022603;28;20057;-63
2023/09/18 08:16:48;;;;;;;3.70;0.82;;;;;;;29.47;nan;98029.28;5020951;28;20080;-63
2023/09/18 08:19:19;;;;;;;3.22;1.30;;;;;;;29.48;nan;98016.41;5021264;28;20480;-65
2023/09/18 08:21:49;;;;;;;2.00;1.08;;;;;;;29.39;nan;98019.19;5021802;28;20045;-68
2023/09/18 08:24:18;;;;;;;3.30;1.30;;;;;;;29.30;nan;98005.63;5022715;28;20045;-67
2023/09/18 08:26:47;;;;;;;1.52;0.73;;;;;;;29.48;nan;98011.75;5023923;28;20572;-66
2023/09/18 08:29:17;;;;;;;1.20;1.00;;;;;;;29.37;nan;98007.84;5024849;28;20045;-65
2023/09/18 08:31:47;;;;;;;1.30;0.80;;;;;;;29.45;nan;97996.84;5023145;28;20051;-66
2023/09/18 08:34:16;;;;;;;2.85;0.80;;;;;;;29.52;nan;97995.53;5022414;28;20380;-64
2023/09/18 08:36:46;;;;;;;3.40;0.60;;;;;;;29.42;nan;97985.81;5013868;28;20053;-66
2023/09/18 08:39:15;;;;;;;2.75;0.90;;;;;;;29.36;nan;97993.38;5023953;28;20124;-66
2023/09/18 08:41:51;;;;;;;1.58;0.80;;;;;;;29.13;nan;97983.09;5022927;28;20115;-66
2023/09/18 08:44:24;;;;;;;2.10;0.73;;;;;;;29.29;nan;97984.13;5021715;28;20050;-67
2023/09/18 08:46:56;;;;;;;1.20;1.10;;;;;;;29.31;nan;97985.41;5024098;28;20056;-66
2023/09/18 08:49:26;;;;;;;0.98;0.82;;;;;;;29.27;nan;97984.44;5023852;28;20052;-66
2023/09/18 08:51:57;;;;;;;1.20;0.82;;;;;;;29.24;nan;97976.13;5024033;28;20041;-64
2023/09/18 08:54:28;;;;;;;4.18;0.90;;;;;;;29.22;nan;97983.81;5022267;28;20045;-64
2023/09/18 08:56:58;;;;;;;2.30;0.90;;;;;;;29.26;nan;97971.13;5024489;28;20068;-64
2023/09/18 08:59:29;;;;;;;1.50;0.82;;;;;;;29.32;nan;97973.34;5020875;28;20080;-63
2023/09/18 09:01:59;;;;;;;1.88;1.00;;;;;;;29.32;nan;97965.16;5019652;28;20045;-64
2023/09/18 09:04:28;;;;;;;1.17;0.80;;;;;;;29.31;nan;97962.78;5021636;28;20112;-64
2023/09/18 09:06:59;;;;;;;1.38;0.80;;;;;;;29.32;nan;97965.16;5023942;28;20570;-65
2023/09/18 09:09:29;;;;;;;1.52;0.93;;;;;;;29.25;nan;97967.63;5020315;28;20057;-63
2023/09/18 09:11:58;;;;;;;0.93;0.90;;;;;;;29.27;nan;97959.09;5025900;28;20433;-63
2023/09/18 09:14:28;;;;;;;1.42;0.98;;;;;;;29.31;nan;97958.13;5022319;28;20053;-63
2023/09/18 09:16:57;;;;;;;2.10;0.63;;;;;;;29.35;nan;97959.03;5019578;28;20045;-64
2023/09/18 09:19:42;;;;;;;1.17;0.85;;;;;;;29.27;nan;97948.16;5020936;28;20060;-60
2023/09/18 09:22:33;;;;;;;2.33;0.90;;;;;;;29.02;nan;97948.03;5019148;28;20056;-62
2023/09/18 09:25:04;;;;;;;1.63;1.00;;;;;;;28.85;nan;97939.97;5022058;28;20073;-62
2023/09/18 09:27:42;;;;;;;0.77;0.77;;;;;;;28.94;nan;97935.22;5021876;28;20136;-63
2023/09/18 09:30:18;;;;;;;0.88;0.70;;;;;;;29.06;nan;97934.53;5018877;28;20153;-63
2023/09/18 09:32:52;;;;;;;0.80;0.80;;;;;;;29.06;nan;97929.06;5020279;28;20045;-60
2023/09/18 09:35:27;;;;;;;2.08;1.10;;;;;;;29.19;nan;97935.41;5020520;28;20115;-63
2023/09/18 09:38:02;;;;;;;6.18;1.25;;;;;;;29.06;nan;97936.47;5022741;28;20060;-62
2023/09/18 09:40:48;;;;;;;4.43;1.10;;;;;;;29.05;nan;97932.13;5018348;28;20037;-62
2023/09/18 09:43:18;;;;;;;1.50;0.90;;;;;;;28.98;nan;97927.22;5020475;28;20068;-63
2023/09/18 09:45:47;;;;;;;1.88;1.02;;;;;;;29.15;nan;97921.63;5024048;28;20053;-63
2023/09/18 09:48:16;;;;;;;1.42;0.95;;;;;;;28.98;nan;97919.84;5021207;28;20467;-62
2023/09/18 09:50:48;;;;;;;2.95;1.10;;;;;;;29.15;nan;97913.44;5022895;28;20056;-62
2023/09/18 09:53:18;;;;;;;2.00;0.85;;;;;;;29.21;nan;97912.09;5017749;28;20550;-63
2023/09/18 09:55:55;;;;;;;4.95;1.10;;;;;;;29.13;nan;97904.00;5022180;28;20077;-62
2023/09/18 09:58:31;;;;;;;2.10;1.02;;;;;;;29.26;nan;97908.38;5017666;28;20052;-63
2023/09/18 10:01:08;;;;;;;1.55;1.10;;;;;;;28.90;nan;97904.31;4976694;28;20485;-63
2023/09/18 10:03:40;;;;;;;1.98;1.30;;;;;;;28.93;nan;97902.88;4980856;28;20057;-63
2023/09/18 10:06:13;;;;;;;1.42;1.20;;;;;;;28.75;nan;97906.84;4979426;28;20051;-64
2023/09/18 10:08:43;;;;;;;1.52;1.00;;;;;;;28.70;nan;97901.53;4995368;28;20046;-64
2023/09/18 10:11:16;;;;;;;1.17;0.90;;;;;;;28.96;nan;97894.00;4981149;28;20057;-62
2023/09/18 10:13:56;;;;;;;1.55;1.15;;;;;;;29.05;nan;97894.75;4979396;28;20050;-63
2023/09/18 10:16:27;;;;;;;2.97;1.35;;;;;;;28.97;nan;97896.41;4980759;28;20042;-62
2023/09/18 10:19:21;;;;;;;1.40;1.10;;;;;;;29.00;nan;97894.94;4981361;28;20118;-62
2023/09/18 10:21:54;;;;;;;2.28;1.33;;;;;;;29.11;nan;97890.72;4977357;28;20142;-62
2023/09/18 10:24:24;;;;;;;;;;;;;;;29.02;nan;97879.06;4980499;28;20046;-63
2023/09/18 10:26:58;;;;;;;1.20;1.10;;;;;;;29.09;nan;97876.59;4981168;28;19938;-61
2023/09/18 10:29:29;;;;;;;2.17;1.40;;;;;;;29.09;nan;97882.03;4978684;28;20113;-62
2023/09/18 10:31:59;;;;;;;1.67;1.25;;;;;;;29.11;nan;97865.34;4981769;28;20050;-61
2023/09/18 10:34:30;;;;;;;4.20;1.52;;;;;;;29.07;nan;97865.22;4976042;28;20059;-62
2023/09/18 10:37:10;;;;;;;3.47;1.40;;;;;;;29.12;nan;97856.81;4980428;28;20145;-62
2023/09/18 10:39:43;;;;;;;1.30;1.10;;;;;;;29.08;nan;97855.91;4980963;28;20137;-62
2023/09/18 10:42:16;;;;;;;3.17;1.13;;;;;;;28.88;nan;97849.34;4997887;28;20070;-62
2023/09/18 10:44:47;;;;;;;1.67;1.20;;;;;;;29.01;nan;97844.75;4978323;28;20390;-61
2023/09/18 10:47:18;;;;;;;1.27;1.02;;;;;;;29.08;nan;97845.00;4981057;28;20201;-62
2023/09/18 10:49:49;;;;;;;1.20;1.10;;;;;;;29.00;nan;97846.66;4980387;28;20050;-63
2023/09/18 10:52:19;;;;;;;2.13;1.00;;;;;;;29.11;nan;97847.06;4976426;28;20046;-63
2023/09/18 10:54:48;;;;;;;3.05;1.13;;;;;;;29.07;nan;97848.06;4979644;28;20042;-64
2023/09/18 10:57:19;;;;;;;3.38;1.23;;;;;;;28.98;nan;97840.75;4978361;28;20065;-63
2023/09/18 10:59:55;;;;;;;0.93;0.70;;;;;;;28.98;nan;97834.50;5000356;28;20487;-62
2023/09/18 11:02:25;;;;;;;3.05;1.10;;;;;;;29.10;nan;97831.84;5018076;28;20077;-62
2023/09/18 11:04:56;;;;;;;0.70;0.70;;;;;;;29.07;nan;97837.16;5016841;28;20626;-63
2023/09/18 11:07:25;;;;;;;2.63;0.70;;;;;;;29.13;nan;97831.16;5014790;28;20429;-63
2023/09/18 11:09:54;;;;;;;4.10;0.77;;;;;;;29.09;nan;97832.97;5021558;28;20156;-63
2023/09/18 11:12:44;;;;;;;2.70;1.05;;;;;;;29.18;nan;97833.69;5016689;28;20132;-63
2023/09/18 11:15:32;;;;;;;2.53;0.98;;;;;;;29.10;nan;97833.75;5019867;28;20057;-64
2023/09/18 11:18:03;;;;;;;2.03;0.82;;;;;;;29.12;nan;97837.72;5020735;28;20444;-64
2023/09/18 11:20:37;;;;;;;1.05;0.90;;;;;;;29.09;nan;97832.16;5022351;28;20055;-63
2023/09/18 11:23:18;;;;;;;2.47;0.88;;;;;;;29.02;nan;97840.88;5021720;28;20049;-63
2023/09/18 11:25:48;;;;;;;0.70;0.70;;;;;;;29.08;nan;97836.03;5021591;28;20041;-63
2023/09/18 11:28:25;;;;;;;1.42;0.80;;;;;;;29.11;nan;97835.34;5017354;28;20054;-64
2023/09/18 11:31:01;;;;;;;3.10;1.58;;;;;;;29.01;nan;97842.00;5022066;28;20069;-63
2023/09/18 11:33:43;;;;;;;1.48;0.63;;;;;;;29.02;nan;97835.44;5020235;28;20049;-63
2023/09/18 11:36:18;;;;;;;1.60;0.65;;;;;;;29.02;nan;97843.63;5003192;28;20722;-62
2023/09/18 11:39:04;;;;;;;2.42;0.65;;;;;;;29.00;nan;97837.69;5005066;28;20128;-63
2023/09/18 11:41:38;;;;;;;1.88;0.60;;;;;;;29.06;nan;97836.34;5007456;28;20450;-63
2023/09/18 11:44:14;;;;;;;1.63;0.70;;;;;;;29.02;nan;97833.50;5015967;28;20076;-62
2023/09/18 11:46:51;;;;;;;0.68;0.60;;;;;;;28.86;nan;97827.03;5022322;28;20077;-63
2023/09/18 11:49:28;;;;;;;0.73;0.65;;;;;;;28.90;nan;97827.19;5022186;28;20046;-63
2023/09/18 11:52:00;;;;;;;2.30;0.80;;;;;;;28.84;nan;97831.25;5018178;28;20053;-64
2023/09/18 11:54:30;;;;;;;2.23;0.77;;;;;;;28.81;nan;97826.47;5018821;28;20095;-63
2023/09/18 11:57:07;;;;;;;1.58;0.77;;;;;;;28.75;nan;97830.50;5022163;28;20057;-62
2023/09/18 11:59:53;;;;;;;1.80;0.60;;;;;;;28.77;nan;97822.78;5023285;28;20053;-63
2023/09/18 12:02:38;;;;;;;2.13;0.95;;;;;;;28.71;nan;97815.97;5018135;28;20076;-61
2023/09/18 12:05:20;;;;;;;0.85;0.80;;;;;;;28.64;nan;97821.09;5022466;28;20037;-64
2023/09/18 12:07:50;;;;;;;2.85;0.82;;;;;;;28.70;nan;97817.03;5025797;28;20057;-63
2023/09/18 12:10:21;;;;;;;0.85;0.75;;;;;;;28.58;nan;97826.75;5024852;28;20055;-63
2023/09/18 12:12:50;;;;;;;1.20;0.80;;;;;;;28.50;nan;97830.31;5026793;28;20045;-64